sensor_id;sensor_type;location;lat;lon;timestamp;pressure;altitude;pressure_sealevel;temperature;humidity
78198;BME280;67472;51.554;7.812;2023-01-31T16:17:54;101261.16;;;6.20;100.00
78198;BME280;67472;51.554;7.812;2023-01-31T16:23:33;101267.34;;;6.19;100.00
78198;BME280;67472;51.554;7.812;2023-01-31T16:26:22;101257.34;;;6.25;100.00
78198;BME280;67472;51.554;7.812;2023-01-31T16:29:15;101266.66;;;6.15;100.00
78198;BME280;67472;51.554;7.812;2023-01-31T16:38:26;101275.69;;;6.10;100.00
78198;BME280;67472;51.554;7.812;2023-01-31T16:41:29;101274.69;;;6.12;100.00
78198;BME280;67472;51.554;7.812;2023-01-31T16:44:31;101285.00;;;6.15;100.00
78198;BME280;67472;51.554;7.812;2023-01-31T16:48:34;101279.25;;;6.24;100.00
78198;BME280;67472;51.554;7.812;2023-01-31T16:56:29;101269.63;;;6.25;100.00
78198;BME280;67472;51.554;7.812;2023-01-31T16:58:56;101261.13;;;6.36;100.00
78198;BME280;67472;51.554;7.812;2023-01-31T17:01:29;101263.88;;;6.34;100.00
78198;BME280;67472;51.554;7.812;2023-01-31T17:06:36;101256.16;;;6.31;100.00
78198;BME280;67472;51.554;7.812;2023-01-31T17:09:03;101283.84;;;6.37;100.00
78198;BME280;67472;51.554;7.812;2023-01-31T17:11:31;101275.72;;;6.41;100.00
78198;BME280;67472;51.554;7.812;2023-01-31T17:13:56;101272.81;;;6.46;100.00
78198;BME280;67472;51.554;7.812;2023-01-31T17:16:23;101263.00;;;6.49;100.00
78198;BME280;67472;51.554;7.812;2023-01-31T17:18:53;101269.44;;;6.44;100.00
78198;BME280;67472;51.554;7.812;2023-01-31T17:21:21;101261.47;;;6.45;100.00
78198;BME280;67472;51.554;7.812;2023-01-31T17:23:48;101250.63;;;6.51;100.00
78198;BME280;67472;51.554;7.812;2023-01-31T17:26:19;101239.41;;;6.49;100.00
78198;BME280;67472;51.554;7.812;2023-01-31T17:28:45;101249.78;;;6.51;100.00
78198;BME280;67472;51.554;7.812;2023-01-31T17:31:18;101247.16;;;6.51;100.00
78198;BME280;67472;51.554;7.812;2023-01-31T17:33:46;101251.38;;;6.53;100.00
78198;BME280;67472;51.554;7.812;2023-01-31T17:36:12;101248.13;;;6.50;100.00
78198;BME280;67472;51.554;7.812;2023-01-31T17:38:38;101250.63;;;6.51;100.00
78198;BME280;67472;51.554;7.812;2023-01-31T17:41:04;101239.22;;;6.52;100.00
78198;BME280;67472;51.554;7.812;2023-01-31T17:43:31;101236.84;;;6.48;100.00
78198;BME280;67472;51.554;7.812;2023-01-31T17:45:57;101231.25;;;6.54;100.00
78198;BME280;67472;51.554;7.812;2023-01-31T17:48:23;101214.66;;;6.53;100.00
78198;BME280;67472;51.554;7.812;2023-01-31T17:50:49;101207.56;;;6.55;100.00
78198;BME280;67472;51.554;7.812;2023-01-31T17:53:14;101211.09;;;6.54;100.00
78198;BME280;67472;51.554;7.812;2023-01-31T17:55:40;101198.16;;;6.51;100.00
78198;BME280;67472;51.554;7.812;2023-01-31T17:58:11;101200.44;;;6.57;100.00
78198;BME280;67472;51.554;7.812;2023-01-31T18:00:37;101206.25;;;6.62;100.00
78198;BME280;67472;51.554;7.812;2023-01-31T18:03:03;101205.41;;;6.62;100.00
78198;BME280;67472;51.554;7.812;2023-01-31T18:05:28;101201.31;;;6.72;100.00
78198;BME280;67472;51.554;7.812;2023-01-31T18:07:54;101196.25;;;6.69;100.00
78198;BME280;67472;51.554;7.812;2023-01-31T18:10:19;101183.41;;;6.64;100.00
78198;BME280;67472;51.554;7.812;2023-01-31T18:12:45;101182.19;;;6.70;100.00
78198;BME280;67472;51.554;7.812;2023-01-31T18:15:11;101180.00;;;6.62;100.00
78198;BME280;67472;51.554;7.812;2023-01-31T18:17:36;101179.16;;;6.62;100.00
78198;BME280;67472;51.554;7.812;2023-01-31T18:20:02;101175.09;;;6.56;100.00
78198;BME280;67472;51.554;7.812;2023-01-31T18:22:28;101176.81;;;6.57;100.00
78198;BME280;67472;51.554;7.812;2023-01-31T18:24:54;101175.78;;;6.60;100.00
78198;BME280;67472;51.554;7.812;2023-01-31T18:27:19;101177.31;;;6.64;100.00
78198;BME280;67472;51.554;7.812;2023-01-31T18:29:45;101187.19;;;6.59;100.00
78198;BME280;67472;51.554;7.812;2023-01-31T18:32:10;101189.19;;;6.55;100.00
78198;BME280;67472;51.554;7.812;2023-01-31T18:34:36;101189.38;;;6.52;100.00
78198;BME280;67472;51.554;7.812;2023-01-31T18:37:04;101182.34;;;6.53;100.00
78198;BME280;67472;51.554;7.812;2023-01-31T18:39:32;101185.72;;;6.55;100.00
78198;BME280;67472;51.554;7.812;2023-01-31T18:41:58;101172.94;;;6.49;100.00
78198;BME280;67472;51.554;7.812;2023-01-31T18:44:23;101175.84;;;6.44;100.00
78198;BME280;67472;51.554;7.812;2023-01-31T18:46:49;101165.41;;;6.43;100.00
78198;BME280;67472;51.554;7.812;2023-01-31T18:49:15;101169.66;;;6.45;100.00
78198;BME280;67472;51.554;7.812;2023-01-31T18:51:42;101157.88;;;6.52;100.00
78198;BME280;67472;51.554;7.812;2023-01-31T18:54:08;101155.59;;;6.46;100.00
78198;BME280;67472;51.554;7.812;2023-01-31T18:56:34;101152.13;;;6.46;100.00
78198;BME280;67472;51.554;7.812;2023-01-31T18:59:00;101162.44;;;6.49;100.00
78198;BME280;67472;51.554;7.812;2023-01-31T19:01:26;101159.81;;;6.49;100.00
78198;BME280;67472;51.554;7.812;2023-01-31T19:03:56;101144.66;;;6.54;100.00
78198;BME280;67472;51.554;7.812;2023-01-31T19:06:31;101169.22;;;6.53;100.00
78198;BME280;67472;51.554;7.812;2023-01-31T19:08:59;101161.78;;;6.45;100.00
78198;BME280;67472;51.554;7.812;2023-01-31T19:11:27;101164.50;;;6.44;100.00
78198;BME280;67472;51.554;7.812;2023-01-31T19:13:52;101155.22;;;6.38;100.00
78198;BME280;67472;51.554;7.812;2023-01-31T19:16:20;101149.97;;;6.38;100.00
78198;BME280;67472;51.554;7.812;2023-01-31T19:18:47;101150.69;;;6.40;100.00
78198;BME280;67472;51.554;7.812;2023-01-31T19:21:22;101145.53;;;6.39;100.00
78198;BME280;67472;51.554;7.812;2023-01-31T19:23:49;101130.06;;;6.34;100.00
78198;BME280;67472;51.554;7.812;2023-01-31T19:26:16;101131.28;;;6.29;100.00
78198;BME280;67472;51.554;7.812;2023-01-31T19:28:55;101128.31;;;6.19;100.00
78198;BME280;67472;51.554;7.812;2023-01-31T19:31:28;101136.47;;;6.14;100.00
78198;BME280;67472;51.554;7.812;2023-01-31T19:33:58;101136.97;;;6.21;100.00
78198;BME280;67472;51.554;7.812;2023-01-31T19:36:33;101134.25;;;6.07;100.00
78198;BME280;67472;51.554;7.812;2023-01-31T19:39:06;101136.72;;;6.10;100.00
78198;BME280;67472;51.554;7.812;2023-01-31T19:41:32;101146.03;;;6.00;100.00
78198;BME280;67472;51.554;7.812;2023-01-31T19:43:59;101153.06;;;5.99;100.00
78198;BME280;67472;51.554;7.812;2023-01-31T19:46:33;101156.94;;;5.92;100.00
78198;BME280;67472;51.554;7.812;2023-01-31T19:48:59;101156.88;;;5.94;100.00
78198;BME280;67472;51.554;7.812;2023-01-31T19:51:25;101163.88;;;5.93;100.00
78198;BME280;67472;51.554;7.812;2023-01-31T19:53:56;101167.81;;;5.86;100.00
78198;BME280;67472;51.554;7.812;2023-01-31T19:56:29;101167.94;;;5.83;100.00
78198;BME280;67472;51.554;7.812;2023-01-31T19:58:55;101178.91;;;5.74;100.00
78198;BME280;67472;51.554;7.812;2023-01-31T20:01:20;101167.25;;;5.80;100.00
78198;BME280;67472;51.554;7.812;2023-01-31T20:03:46;101168.34;;;5.76;100.00
78198;BME280;67472;51.554;7.812;2023-01-31T20:06:20;101165.38;;;5.66;100.00
78198;BME280;67472;51.554;7.812;2023-01-31T20:08:50;101168.00;;;5.66;100.00
78198;BME280;67472;51.554;7.812;2023-01-31T20:11:16;101160.97;;;5.66;100.00
78198;BME280;67472;51.554;7.812;2023-01-31T20:13:42;101164.53;;;5.65;100.00
78198;BME280;67472;51.554;7.812;2023-01-31T20:16:09;101175.09;;;5.64;100.00
78198;BME280;67472;51.554;7.812;2023-01-31T20:18:37;101167.91;;;5.67;100.00
78198;BME280;67472;51.554;7.812;2023-01-31T20:21:03;101167.00;;;5.68;100.00
78198;BME280;67472;51.554;7.812;2023-01-31T20:23:29;101170.59;;;5.66;100.00
78198;BME280;67472;51.554;7.812;2023-01-31T20:25:55;101161.75;;;5.68;100.00
78198;BME280;67472;51.554;7.812;2023-01-31T20:28:21;101159.63;;;5.59;100.00
78198;BME280;67472;51.554;7.812;2023-01-31T20:30:47;101154.88;;;5.66;100.00
78198;BME280;67472;51.554;7.812;2023-01-31T20:33:14;101145.69;;;5.59;100.00
78198;BME280;67472;51.554;7.812;2023-01-31T20:35:40;101142.03;;;5.61;100.00
78198;BME280;67472;51.554;7.812;2023-01-31T20:38:06;101142.16;;;5.60;100.00
78198;BME280;67472;51.554;7.812;2023-01-31T20:40:32;101143.13;;;5.57;100.00
78198;BME280;67472;51.554;7.812;2023-01-31T20:43:00;101130.03;;;5.57;100.00
78198;BME280;67472;51.554;7.812;2023-01-31T20:45:32;101139.44;;;5.61;100.00
78198;BME280;67472;51.554;7.812;2023-01-31T20:47:58;101146.09;;;5.67;100.00
78198;BME280;67472;51.554;7.812;2023-01-31T20:50:26;101131.03;;;5.55;100.00
78198;BME280;67472;51.554;7.812;2023-01-31T20:52:53;101137.47;;;5.49;100.00
78198;BME280;67472;51.554;7.812;2023-01-31T20:55:19;101141.84;;;5.49;100.00
78198;BME280;67472;51.554;7.812;2023-01-31T20:57:48;101145.91;;;5.54;100.00
78198;BME280;67472;51.554;7.812;2023-01-31T21:00:21;101141.78;;;5.50;100.00
78198;BME280;67472;51.554;7.812;2023-01-31T21:02:50;101149.38;;;5.55;100.00
78198;BME280;67472;51.554;7.812;2023-01-31T21:05:16;101139.34;;;5.47;100.00
78198;BME280;67472;51.554;7.812;2023-01-31T21:07:42;101138.59;;;5.45;100.00
78198;BME280;67472;51.554;7.812;2023-01-31T21:10:10;101133.50;;;5.42;100.00
78198;BME280;67472;51.554;7.812;2023-01-31T21:12:37;101129.28;;;5.40;100.00
78198;BME280;67472;51.554;7.812;2023-01-31T21:15:03;101135.44;;;5.39;100.00
78198;BME280;67472;51.554;7.812;2023-01-31T21:17:29;101124.13;;;5.38;100.00
78198;BME280;67472;51.554;7.812;2023-01-31T21:19:55;101123.63;;;5.47;100.00
78198;BME280;67472;51.554;7.812;2023-01-31T21:22:21;101112.38;;;5.45;100.00
78198;BME280;67472;51.554;7.812;2023-01-31T21:24:47;101110.59;;;5.46;100.00
78198;BME280;67472;51.554;7.812;2023-01-31T21:27:12;101093.25;;;5.43;100.00
78198;BME280;67472;51.554;7.812;2023-01-31T21:29:38;101095.31;;;5.38;100.00
78198;BME280;67472;51.554;7.812;2023-01-31T21:32:04;101098.25;;;5.32;100.00
78198;BME280;67472;51.554;7.812;2023-01-31T21:34:30;101096.16;;;5.39;100.00
78198;BME280;67472;51.554;7.812;2023-01-31T21:36:55;101096.75;;;5.28;100.00
78198;BME280;67472;51.554;7.812;2023-01-31T21:39:24;101091.00;;;5.22;100.00
78198;BME280;67472;51.554;7.812;2023-01-31T21:41:50;101099.84;;;5.19;100.00
78198;BME280;67472;51.554;7.812;2023-01-31T21:44:35;101094.00;;;5.14;100.00
78198;BME280;67472;51.554;7.812;2023-01-31T21:47:00;101102.81;;;5.13;100.00
78198;BME280;67472;51.554;7.812;2023-01-31T21:49:26;101099.81;;;5.03;100.00
78198;BME280;67472;51.554;7.812;2023-01-31T21:51:51;101099.22;;;4.98;100.00
78198;BME280;67472;51.554;7.812;2023-01-31T21:54:26;101095.16;;;4.93;100.00
78198;BME280;67472;51.554;7.812;2023-01-31T21:57:06;101095.44;;;5.04;100.00
78198;BME280;67472;51.554;7.812;2023-01-31T21:59:32;101100.91;;;4.99;100.00
78198;BME280;67472;51.554;7.812;2023-01-31T22:01:58;101100.31;;;4.94;100.00
78198;BME280;67472;51.554;7.812;2023-01-31T22:04:23;101101.56;;;4.87;100.00
78198;BME280;67472;51.554;7.812;2023-01-31T22:06:49;101110.19;;;4.89;100.00
78198;BME280;67472;51.554;7.812;2023-01-31T22:09:16;101110.53;;;4.99;100.00
78198;BME280;67472;51.554;7.812;2023-01-31T22:11:42;101110.28;;;5.03;100.00
78198;BME280;67472;51.554;7.812;2023-01-31T22:14:10;101108.84;;;4.98;100.00
78198;BME280;67472;51.554;7.812;2023-01-31T22:16:37;101110.19;;;4.89;100.00
78198;BME280;67472;51.554;7.812;2023-01-31T22:19:03;101109.00;;;4.95;100.00
78198;BME280;67472;51.554;7.812;2023-01-31T22:21:31;101114.84;;;5.00;100.00
78198;BME280;67472;51.554;7.812;2023-01-31T22:23:58;101109.16;;;4.92;100.00
78198;BME280;67472;51.554;7.812;2023-01-31T22:26:27;101113.22;;;4.97;100.00
78198;BME280;67472;51.554;7.812;2023-01-31T22:28:54;101107.63;;;4.88;100.00
78198;BME280;67472;51.554;7.812;2023-01-31T22:31:20;101105.78;;;4.90;100.00
78198;BME280;67472;51.554;7.812;2023-01-31T22:33:46;101113.66;;;4.90;100.00
78198;BME280;67472;51.554;7.812;2023-01-31T22:36:13;101114.72;;;4.86;100.00
78198;BME280;67472;51.554;7.812;2023-01-31T22:38:40;101122.56;;;4.86;100.00
78198;BME280;67472;51.554;7.812;2023-01-31T22:41:08;101119.72;;;4.90;100.00
78198;BME280;67472;51.554;7.812;2023-01-31T22:43:36;101108.63;;;4.85;100.00
78198;BME280;67472;51.554;7.812;2023-01-31T22:46:02;101104.84;;;4.91;100.00
78198;BME280;67472;51.554;7.812;2023-01-31T22:48:28;101101.19;;;4.78;100.00
78198;BME280;67472;51.554;7.812;2023-01-31T22:50:59;101092.50;;;4.77;100.00
78198;BME280;67472;51.554;7.812;2023-01-31T22:53:27;101099.28;;;4.64;100.00
78198;BME280;67472;51.554;7.812;2023-01-31T22:55:53;101102.34;;;4.72;100.00
78198;BME280;67472;51.554;7.812;2023-01-31T22:58:21;101095.25;;;4.74;100.00
78198;BME280;67472;51.554;7.812;2023-01-31T23:00:55;101099.59;;;4.75;100.00
78198;BME280;67472;51.554;7.812;2023-01-31T23:03:21;101099.47;;;4.61;100.00
78198;BME280;67472;51.554;7.812;2023-01-31T23:05:48;101101.53;;;4.54;100.00
78198;BME280;67472;51.554;7.812;2023-01-31T23:08:14;101104.31;;;4.51;100.00
78198;BME280;67472;51.554;7.812;2023-01-31T23:10:41;101102.28;;;4.56;100.00
78198;BME280;67472;51.554;7.812;2023-01-31T23:13:07;101095.53;;;4.52;100.00
78198;BME280;67472;51.554;7.812;2023-01-31T23:15:34;101100.84;;;4.51;100.00
78198;BME280;67472;51.554;7.812;2023-01-31T23:18:00;101100.78;;;4.52;100.00
78198;BME280;67472;51.554;7.812;2023-01-31T23:20:27;101101.91;;;4.47;100.00
78198;BME280;67472;51.554;7.812;2023-01-31T23:22:55;101109.38;;;4.54;100.00
78198;BME280;67472;51.554;7.812;2023-01-31T23:25:23;101106.22;;;4.48;100.00
78198;BME280;67472;51.554;7.812;2023-01-31T23:27:49;101092.06;;;4.52;100.00
78198;BME280;67472;51.554;7.812;2023-01-31T23:30:16;101111.00;;;4.57;100.00
78198;BME280;67472;51.554;7.812;2023-01-31T23:32:42;101107.47;;;4.58;100.00
78198;BME280;67472;51.554;7.812;2023-01-31T23:35:08;101120.44;;;4.60;100.00
78198;BME280;67472;51.554;7.812;2023-01-31T23:37:34;101112.28;;;4.66;100.00
78198;BME280;67472;51.554;7.812;2023-01-31T23:40:01;101104.84;;;4.58;100.00
78198;BME280;67472;51.554;7.812;2023-01-31T23:42:27;101113.44;;;4.60;100.00
78198;BME280;67472;51.554;7.812;2023-01-31T23:44:52;101120.22;;;4.64;100.00
78198;BME280;67472;51.554;7.812;2023-01-31T23:47:18;101119.13;;;4.68;100.00
78198;BME280;67472;51.554;7.812;2023-01-31T23:49:44;101120.41;;;4.77;100.00
78198;BME280;67472;51.554;7.812;2023-01-31T23:52:09;101119.25;;;4.82;100.00
78198;BME280;67472;51.554;7.812;2023-01-31T23:54:35;101117.34;;;4.86;100.00
78198;BME280;67472;51.554;7.812;2023-01-31T23:57:01;101110.00;;;4.92;100.00
78198;BME280;67472;51.554;7.812;2023-01-31T23:59:28;101108.16;;;4.94;100.00
